createdAt,value
2023-04-01T00:01:19.186Z,79.21
2023-04-01T00:03:47.657Z,79.28
2023-04-01T00:06:18.613Z,78.83
2023-04-01T00:08:47.839Z,79.00
2023-04-01T00:11:17.003Z,78.78
2023-04-01T00:13:45.606Z,78.82
2023-04-01T00:16:21.822Z,78.84
2023-04-01T00:18:52.353Z,78.91
2023-04-01T00:21:22.251Z,78.87
2023-04-01T00:23:53.701Z,78.97
2023-04-01T00:26:23.191Z,78.88
2023-04-01T00:28:52.214Z,78.95
2023-04-01T00:31:21.810Z,78.99
2023-04-01T00:33:50.878Z,79.01
2023-04-01T00:36:22.960Z,79.41
2023-04-01T00:38:52.915Z,80.12
2023-04-01T00:41:22.639Z,80.20
2023-04-01T00:43:53.684Z,80.28
2023-04-01T00:46:22.047Z,80.38
2023-04-01T00:48:54.500Z,80.95
2023-04-01T00:51:30.367Z,81.34
2023-04-01T00:54:02.944Z,81.35
2023-04-01T00:56:49.963Z,81.80
2023-04-01T00:59:26.260Z,81.29
2023-04-01T01:01:55.033Z,81.36
2023-04-01T01:04:29.399Z,81.34
2023-04-01T01:07:21.091Z,81.29
2023-04-01T01:10:11.020Z,81.76
2023-04-01T01:13:12.371Z,81.42
2023-04-01T01:15:58.591Z,81.14
2023-04-01T01:18:38.957Z,81.06
2023-04-01T01:21:22.582Z,81.38
2023-04-01T01:24:08.896Z,81.51
2023-04-01T01:27:03.240Z,82.02
2023-04-01T01:29:56.512Z,81.72
2023-04-01T01:32:56.868Z,81.60
2023-04-01T01:35:51.202Z,81.63
2023-04-01T01:38:25.318Z,82.11
2023-04-01T01:41:03.441Z,81.89
2023-04-01T01:43:36.553Z,82.28
2023-04-01T01:46:12.789Z,82.19
2023-04-01T01:48:44.030Z,82.44
2023-04-01T01:51:13.119Z,82.41
2023-04-01T01:53:42.096Z,82.49
2023-04-01T01:56:15.084Z,82.52
2023-04-01T01:58:48.830Z,82.48
2023-04-01T02:01:25.859Z,82.43
2023-04-01T02:03:56.967Z,82.51
2023-04-01T02:06:29.531Z,82.28
2023-04-01T02:09:04.306Z,82.18
2023-04-01T02:11:45.279Z,82.08
2023-04-01T02:14:27.604Z,82.04
2023-04-01T02:17:07.834Z,82.06
2023-04-01T02:19:46.250Z,82.15
2023-04-01T02:22:20.505Z,81.94
2023-04-01T02:24:51.975Z,82.02
2023-04-01T02:27:21.781Z,81.92
2023-04-01T02:29:51.716Z,81.89
2023-04-01T02:32:21.768Z,81.76
2023-04-01T02:34:51.732Z,81.69
2023-04-01T02:37:20.724Z,81.80
2023-04-01T02:39:50.324Z,81.93
2023-04-01T02:42:20.210Z,81.99
2023-04-01T02:44:49.173Z,81.75
2023-04-01T02:47:18.273Z,81.64
2023-04-01T02:49:46.699Z,81.56
2023-04-01T02:52:15.166Z,81.60
2023-04-01T02:54:43.762Z,81.43
2023-04-01T02:57:12.150Z,81.43
2023-04-01T02:59:40.664Z,81.27
2023-04-01T07:36:08.361Z,71.22
2023-04-01T07:38:48.521Z,71.09
2023-04-01T07:41:36.214Z,71.18
2023-04-01T07:44:31.167Z,71.05
2023-04-01T07:47:30.882Z,70.87
2023-04-01T07:50:27.172Z,70.48
2023-04-01T07:52:54.383Z,70.11
2023-04-01T07:55:24.491Z,69.88
2023-04-01T07:58:08.736Z,69.80
2023-04-01T08:01:03.707Z,69.81
2023-04-01T08:03:59.466Z,69.93
2023-04-01T08:06:54.461Z,70.07
2023-04-01T08:09:39.638Z,70.19
2023-04-01T08:12:45.916Z,70.22
2023-04-01T08:15:57.585Z,70.68
2023-04-01T08:18:50.347Z,71.65
2023-04-01T08:21:36.142Z,72.15
2023-04-01T08:24:19.268Z,72.66
2023-04-01T08:26:54.140Z,73.07
2023-04-01T08:29:26.526Z,73.39
2023-04-01T08:32:13.917Z,73.91
2023-04-01T08:34:46.269Z,73.99
2023-04-01T08:37:33.656Z,74.20
2023-04-01T08:40:28.313Z,74.43
2023-04-01T08:43:25.757Z,74.85
2023-04-01T08:49:56.549Z,74.65
2023-04-01T08:52:51.548Z,75.26
2023-04-01T08:55:39.609Z,75.07
2023-04-01T08:58:40.618Z,75.16
2023-04-01T09:01:21.595Z,75.55
2023-04-01T09:04:26.243Z,76.04
2023-04-01T09:07:28.651Z,76.48
2023-04-01T09:10:14.462Z,77.13
2023-04-01T09:13:21.424Z,77.70
2023-04-01T09:16:23.749Z,78.16
2023-04-01T09:19:12.558Z,79.26
2023-04-01T09:22:14.815Z,79.60
2023-04-01T09:28:52.971Z,80.89
2023-04-01T09:32:02.897Z,81.18
2023-04-01T09:35:22.920Z,82.20
2023-04-01T09:38:09.919Z,82.81
2023-04-01T09:40:55.209Z,83.48
2023-04-01T09:44:02.782Z,83.50
2023-04-01T09:46:59.241Z,83.43
2023-04-01T09:49:31.149Z,83.51
2023-04-01T09:52:10.846Z,83.84
2023-04-01T09:55:00.712Z,83.92
2023-04-01T09:57:46.193Z,83.75
2023-04-01T10:00:51.533Z,83.38
2023-04-01T10:03:56.160Z,83.24
2023-04-01T10:06:59.056Z,83.27
2023-04-01T10:10:05.684Z,82.90
2023-04-01T10:12:39.957Z,82.81
2023-04-01T10:15:20.812Z,83.12
2023-04-01T10:18:26.920Z,84.24
2023-04-01T10:21:24.634Z,84.76
2023-04-01T10:23:53.062Z,84.13
2023-04-01T10:26:45.330Z,83.94
2023-04-01T10:30:07.091Z,83.81
2023-04-01T10:33:08.377Z,84.02
2023-04-01T10:35:52.138Z,83.65
2023-04-01T10:38:29.403Z,83.82
2023-04-01T10:41:19.730Z,85.04
2023-04-01T10:44:29.107Z,85.56
2023-04-01T10:47:14.062Z,85.57
2023-04-01T10:50:11.156Z,85.87
2023-04-01T10:53:16.079Z,85.60
2023-04-01T10:56:31.328Z,84.79
2023-04-01T10:59:34.134Z,84.93
2023-04-01T11:02:40.111Z,83.29
2023-04-01T11:05:42.389Z,84.44
2023-04-01T11:08:39.984Z,83.94
2023-04-01T11:11:26.800Z,84.41
2023-04-01T11:14:13.401Z,85.01
2023-04-01T11:17:01.048Z,84.38
2023-04-01T11:19:51.246Z,82.94
2023-04-01T11:22:25.960Z,83.87
2023-04-01T11:25:10.583Z,85.04
2023-04-01T11:28:03.872Z,84.92
2023-04-01T11:31:01.905Z,85.26
2023-04-01T11:33:40.027Z,85.29
2023-04-01T11:36:20.594Z,81.64
2023-04-01T11:39:11.696Z,78.41
2023-04-01T11:42:45.287Z,81.14
2023-04-01T11:45:47.678Z,79.63
2023-04-01T11:48:38.005Z,79.84
2023-04-01T11:51:35.692Z,80.63
2023-04-01T11:54:44.266Z,81.63
2023-04-01T11:57:30.721Z,80.34
2023-04-01T12:00:19.767Z,80.30
2023-04-01T12:03:25.861Z,80.85
2023-04-01T12:06:04.761Z,77.76
2023-04-01T12:08:34.215Z,78.36
2023-04-01T12:11:40.672Z,78.41
2023-04-01T12:14:37.843Z,81.99
2023-04-01T12:17:40.428Z,83.03
2023-04-01T12:20:27.074Z,83.99
2023-04-01T12:23:33.647Z,83.95
2023-04-01T12:26:28.462Z,83.19
2023-04-01T12:29:06.049Z,83.77
2023-04-01T12:31:57.243Z,80.50
2023-04-01T12:34:34.767Z,81.06
2023-04-01T12:37:21.972Z,81.36
2023-04-01T12:39:59.797Z,82.11
2023-04-01T12:42:45.881Z,82.68
2023-04-01T12:45:23.456Z,82.44
2023-04-01T12:48:37.001Z,83.60
2023-04-01T12:51:11.378Z,83.05
2023-04-01T12:54:16.865Z,82.98
2023-04-01T12:57:03.259Z,82.94
2023-04-01T12:59:53.811Z,83.82
2023-04-01T13:02:31.303Z,82.20
2023-04-01T13:05:17.878Z,84.21
2023-04-01T13:08:07.236Z,84.87
2023-04-01T13:10:59.477Z,84.17
2023-04-01T13:13:46.545Z,84.59
2023-04-01T13:16:40.068Z,84.33
2023-04-01T13:20:01.809Z,81.18
2023-04-01T13:22:54.234Z,78.88
2023-04-01T13:25:29.204Z,80.33
2023-04-01T13:28:28.824Z,79.46
2023-04-01T13:31:07.670Z,74.86
2023-04-01T13:33:38.872Z,79.13
2023-04-01T13:36:25.191Z,80.72
2023-04-01T13:39:21.777Z,82.57
2023-04-01T13:46:08.411Z,85.62
2023-04-01T13:49:00.161Z,85.85
2023-04-01T13:52:00.164Z,84.24
2023-04-01T13:54:43.820Z,84.52
2023-04-01T13:57:49.493Z,84.22
2023-04-01T14:00:48.383Z,84.82
2023-04-01T14:03:31.535Z,80.80
2023-04-01T14:06:44.884Z,81.56
2023-04-01T14:09:22.100Z,83.12
2023-04-01T14:11:56.543Z,84.84
2023-04-01T14:14:31.072Z,83.34
2023-04-01T14:17:28.642Z,84.19
2023-04-01T14:20:26.994Z,84.87
2023-04-01T14:23:29.272Z,83.88
2023-04-01T14:26:12.723Z,82.85
2023-04-01T14:29:08.752Z,84.74
2023-04-01T14:31:53.210Z,83.61
2023-04-01T14:34:59.453Z,84.29
2023-04-01T14:38:00.370Z,84.35
2023-04-01T14:40:54.325Z,85.06
2023-04-01T14:43:45.709Z,85.36
2023-04-01T14:46:34.442Z,86.08
2023-04-01T14:49:40.635Z,81.88
2023-04-01T14:52:37.117Z,84.22
2023-04-01T14:55:35.937Z,83.78
2023-04-01T14:58:18.513Z,82.51
2023-04-01T15:01:05.958Z,84.88
2023-04-01T15:03:49.124Z,85.56
2023-04-01T15:06:45.108Z,85.95
2023-04-01T15:09:40.063Z,81.33
2023-04-01T15:12:30.490Z,83.41
2023-04-01T15:15:31.172Z,83.85
2023-04-01T15:18:20.267Z,84.46
2023-04-01T15:21:20.108Z,84.34
2023-04-01T15:24:12.845Z,83.94
2023-04-01T15:27:03.120Z,83.36
2023-04-01T15:30:13.168Z,83.52
2023-04-01T15:33:09.201Z,82.76
2023-04-01T15:35:46.808Z,83.49
2023-04-01T15:38:49.363Z,82.12
2023-04-01T15:41:37.207Z,84.29
2023-04-01T15:44:25.562Z,84.93
2023-04-01T15:46:53.952Z,84.80
2023-04-01T15:50:01.370Z,84.94
2023-04-01T15:52:51.451Z,84.56
2023-04-01T15:55:22.369Z,83.03
2023-04-01T15:58:03.201Z,83.97
2023-04-01T16:00:43.312Z,83.99
2023-04-01T16:03:49.707Z,84.69
2023-04-01T16:06:28.695Z,85.07
2023-04-01T16:09:22.289Z,85.59
2023-04-01T16:12:19.300Z,85.65
2023-04-01T16:15:01.446Z,85.62
2023-04-01T16:17:43.188Z,85.70
2023-04-01T16:20:45.766Z,85.45
2023-04-01T16:23:27.924Z,85.58
2023-04-01T16:26:19.930Z,85.69
2023-04-01T16:28:56.414Z,85.52
2023-04-01T16:31:27.783Z,85.46
2023-04-01T16:34:05.756Z,86.15
2023-04-01T16:36:51.583Z,85.69
2023-04-01T16:39:47.675Z,85.85
2023-04-01T16:42:44.132Z,85.68
2023-04-01T16:45:45.498Z,85.64
2023-04-01T16:48:54.072Z,85.43
2023-04-01T16:51:46.240Z,85.73
2023-04-01T16:54:36.402Z,85.67
2023-04-01T16:57:05.222Z,85.35
2023-04-01T16:59:56.469Z,85.51
2023-04-01T17:02:31.633Z,85.35
2023-04-01T17:05:09.656Z,85.47
2023-04-01T17:08:12.371Z,85.78
2023-04-01T17:10:54.666Z,85.65
2023-04-01T17:13:51.694Z,85.91
2023-04-01T17:16:20.964Z,86.09
2023-04-01T17:19:01.898Z,85.80
2023-04-01T17:22:03.046Z,85.66
2023-04-01T17:25:19.312Z,85.72
2023-04-01T17:28:00.343Z,85.98
2023-04-01T17:30:47.285Z,85.44
2023-04-01T17:34:03.739Z,85.53
2023-04-01T17:36:41.400Z,85.83
2023-04-01T17:39:29.993Z,85.86
2023-04-01T17:42:06.702Z,85.83
2023-04-01T17:44:56.166Z,85.21
2023-04-01T17:47:30.983Z,85.19
2023-04-01T17:50:11.784Z,85.25
2023-04-01T17:53:00.917Z,84.96
2023-04-01T17:56:02.025Z,85.38
2023-04-01T17:58:48.111Z,85.20
2023-04-01T18:01:38.362Z,85.37
2023-04-01T18:04:48.666Z,85.32
2023-04-01T18:07:26.357Z,85.69
2023-04-01T18:10:05.974Z,85.69
2023-04-01T18:12:47.105Z,85.61
2023-04-01T18:15:34.484Z,85.63
2023-04-01T18:18:20.393Z,85.42
2023-04-01T18:21:08.383Z,85.57
2023-04-01T18:24:04.015Z,85.76
2023-04-01T18:26:39.867Z,85.81
2023-04-01T18:29:19.247Z,86.00
2023-04-01T18:31:56.542Z,86.15
2023-04-01T18:34:53.658Z,86.28
2023-04-01T18:37:32.915Z,86.28
2023-04-01T18:40:37.734Z,86.33
2023-04-01T18:43:41.297Z,86.37
2023-04-01T18:46:40.717Z,86.46
2023-04-01T18:49:30.779Z,86.44
2023-04-01T18:52:09.800Z,86.36
2023-04-01T18:54:54.475Z,86.52
2023-04-01T18:57:24.697Z,86.45
2023-04-01T19:00:09.792Z,86.46
2023-04-01T19:02:38.219Z,86.38
2023-04-01T19:05:19.582Z,86.33
2023-04-01T19:07:54.620Z,86.31
2023-04-01T19:10:32.500Z,86.21
2023-04-01T19:13:19.809Z,86.23
2023-04-01T19:15:52.357Z,86.14
2023-04-01T19:18:51.851Z,85.93
2023-04-01T19:21:28.199Z,85.80
2023-04-01T19:24:24.053Z,85.95
2023-04-01T19:27:04.207Z,85.86
2023-04-01T19:29:44.680Z,85.98
2023-04-01T19:32:42.442Z,86.01
2023-04-01T19:35:24.590Z,86.11
2023-04-01T19:38:03.118Z,86.32
2023-04-01T19:40:53.549Z,86.47
2023-04-01T19:43:53.098Z,86.62
2023-04-01T19:46:26.388Z,86.64
2023-04-01T19:49:13.984Z,86.73
2023-04-01T19:51:55.870Z,86.87
2023-04-01T19:54:33.387Z,86.90
2023-04-01T19:57:07.884Z,86.83
2023-04-01T19:59:43.584Z,86.97
2023-04-01T20:02:42.951Z,86.97
2023-04-01T20:05:44.049Z,87.06
2023-04-01T20:08:12.725Z,87.15
2023-04-01T20:10:53.363Z,87.16
2023-04-01T20:14:00.861Z,87.11
2023-04-01T20:17:00.021Z,87.14
2023-04-01T20:19:50.042Z,87.18
2023-04-01T20:22:29.630Z,87.20
2023-04-01T20:25:14.020Z,87.18
2023-04-01T20:27:53.214Z,87.13
2023-04-01T20:30:59.430Z,87.07
2023-04-01T20:33:58.908Z,87.17
2023-04-01T20:36:39.361Z,87.21
2023-04-01T20:39:22.930Z,87.25
2023-04-01T20:42:28.027Z,87.32
2023-04-01T20:45:00.622Z,87.39
2023-04-01T20:47:29.119Z,87.35
2023-04-01T20:50:25.815Z,87.41
2023-04-01T20:53:05.732Z,87.53
2023-04-01T20:56:08.547Z,87.46
2023-04-01T20:58:47.912Z,87.43
2023-04-01T21:01:53.750Z,87.42
2023-04-01T21:05:03.819Z,87.33
2023-04-01T21:07:44.256Z,87.35
2023-04-01T21:10:42.092Z,87.35
2023-04-01T21:13:29.013Z,87.50
2023-04-01T21:16:21.198Z,87.65
2023-04-01T21:18:50.036Z,87.79
2023-04-01T21:21:35.060Z,88.23
2023-04-01T21:25:04.139Z,88.44
2023-04-01T21:27:48.036Z,88.54
2023-04-01T21:30:41.637Z,88.61
2023-04-01T21:33:27.956Z,88.63
2023-04-01T21:36:05.545Z,88.60
2023-04-01T21:38:42.910Z,88.60
2023-04-01T21:41:21.344Z,88.60
2023-04-01T21:44:19.902Z,88.62
2023-04-01T21:50:41.190Z,88.44
2023-04-01T21:53:47.221Z,88.45
2023-04-01T21:56:15.709Z,88.22
2023-04-01T21:59:21.579Z,88.31
2023-04-01T22:02:08.113Z,88.57
2023-04-01T22:04:45.330Z,88.61
2023-04-01T22:07:25.632Z,88.73
2023-04-01T22:10:12.133Z,89.00
2023-04-01T22:12:51.655Z,89.25
2023-04-01T22:16:02.358Z,89.51
2023-04-01T22:19:04.942Z,89.61
2023-04-01T22:22:02.598Z,89.65
2023-04-01T22:24:40.502Z,89.82
2023-04-01T22:27:22.548Z,89.78
2023-04-01T22:29:53.870Z,89.92
2023-04-01T22:32:29.563Z,90.07
2023-04-01T22:35:12.602Z,90.16
2023-04-01T22:38:00.173Z,90.20
2023-04-01T22:40:57.101Z,90.26
2023-04-01T22:43:40.786Z,90.35
2023-04-01T22:46:18.226Z,90.33
2023-04-01T22:48:49.158Z,90.33
2023-04-01T22:51:25.564Z,90.46
2023-04-01T22:54:03.532Z,90.46
2023-04-01T22:56:38.917Z,90.43
2023-04-01T22:59:21.885Z,90.43
2023-04-01T23:02:08.325Z,90.40
2023-04-01T23:04:44.681Z,90.55
2023-04-01T23:07:48.015Z,90.51
2023-04-01T23:10:39.293Z,90.48
2023-04-01T23:13:15.113Z,90.49
2023-04-01T23:15:46.163Z,90.68
2023-04-01T23:18:36.134Z,90.49
2023-04-01T23:21:07.422Z,90.58
2023-04-01T23:23:50.902Z,90.66
2023-04-01T23:26:38.336Z,90.67
2023-04-01T23:29:16.362Z,90.75
2023-04-01T23:31:49.411Z,90.80
2023-04-01T23:34:25.556Z,90.77
2023-04-01T23:37:00.296Z,90.77
2023-04-01T23:39:35.786Z,90.82
2023-04-01T23:42:14.597Z,90.83
2023-04-01T23:44:44.967Z,90.80
2023-04-01T23:47:19.075Z,90.93
2023-04-01T23:49:56.470Z,90.94
2023-04-01T23:52:27.683Z,90.84
2023-04-01T23:55:04.685Z,90.74
2023-04-01T23:57:37.865Z,90.75
